Time;durP1;ratioP1;P1;durP2;ratioP2;P2;SDS_P1;SDS_P2;PMS_P1;PMS_P2;Temp;Humidity;BMP_temperature;BMP_pressure;BME280_temperature;BME280_humidity;BME280_pressure;Samples;Min_cycle;Max_cycle;Signal;HPM_P1;HPM_P2
2021/07/10 00:00:46;;;;;;;4.57;0.85;;;20.10;70.60;;;;;;5072364;28;20063;-69
2021/07/10 00:03:51;;;;;;;1.50;0.63;;;20.10;70.80;;;;;;5073610;28;20031;-69
2021/07/10 00:06:58;;;;;;;1.77;0.80;;;20.00;71.00;;;;;;5073107;28;20051;-69
2021/07/10 00:10:10;;;;;;;1.20;0.60;;;20.00;71.10;;;;;;5071934;28;20047;-69
2021/07/10 00:13:14;;;;;;;2.20;0.68;;;19.90;71.10;;;;;;5072876;28;20036;-69
2021/07/10 00:16:18;;;;;;;1.25;0.70;;;19.90;71.10;;;;;;5052547;28;20052;-68
2021/07/10 00:19:25;;;;;;;1.88;0.80;;;19.80;71.30;;;;;;5052493;28;20055;-69
2021/07/10 00:22:29;;;;;;;1.05;0.60;;;19.70;71.70;;;;;;5052604;28;20082;-69
2021/07/10 00:25:33;;;;;;;1.25;0.50;;;19.60;72.80;;;;;;5052577;28;20047;-69
2021/07/10 00:28:38;;;;;;;2.13;0.60;;;19.50;73.20;;;;;;5052357;28;20040;-69
2021/07/10 00:31:44;;;;;;;2.42;0.80;;;19.40;72.70;;;;;;5059731;28;20044;-69
2021/07/10 00:35:05;;;;;;;2.50;0.73;;;19.40;72.50;;;;;;5072341;28;20044;-69
2021/07/10 00:38:09;;;;;;;7.00;0.68;;;19.40;72.20;;;;;;5072065;28;20043;-69
2021/07/10 00:41:13;;;;;;;2.38;0.65;;;19.40;71.60;;;;;;5071989;28;20506;-69
2021/07/10 00:44:17;;;;;;;5.13;0.77;;;19.40;71.50;;;;;;5071894;28;20043;-69
2021/07/10 00:47:21;;;;;;;1.52;0.70;;;19.40;71.50;;;;;;5072328;28;20047;-69
2021/07/10 00:50:26;;;;;;;1.65;0.60;;;19.40;71.90;;;;;;5071601;28;20055;-69
2021/07/10 00:53:31;;;;;;;1.67;0.60;;;19.30;73.00;;;;;;5071928;28;20051;-68
2021/07/10 00:56:35;;;;;;;4.00;0.70;;;19.10;74.00;;;;;;5072358;28;20044;-69
2021/07/10 00:59:40;;;;;;;1.77;0.70;;;18.90;75.40;;;;;;5071915;28;20383;-69
2021/07/10 01:02:47;;;;;;;4.13;0.80;;;18.70;75.90;;;;;;5072477;28;20064;-69
2021/07/10 01:05:51;;;;;;;1.13;0.82;;;18.60;76.50;;;;;;5071877;28;20051;-69
2021/07/10 01:09:00;;;;;;;2.50;0.90;;;18.60;76.40;;;;;;5071724;28;20055;-69
2021/07/10 01:12:05;;;;;;;1.02;0.80;;;18.50;76.00;;;;;;5071610;28;20047;-69
2021/07/10 01:15:11;;;;;;;3.75;0.93;;;18.50;76.10;;;;;;5071998;28;20395;-69
2021/07/10 01:18:15;;;;;;;1.10;0.77;;;18.60;75.90;;;;;;5072135;28;20486;-69
2021/07/10 01:21:19;;;;;;;1.42;0.82;;;18.60;75.20;;;;;;5071229;28;20043;-69
2021/07/10 01:24:23;;;;;;;2.72;0.90;;;18.60;74.60;;;;;;5071079;28;20524;-69
2021/07/10 01:27:28;;;;;;;3.60;0.80;;;18.70;74.30;;;;;;5071243;28;20044;-69
2021/07/10 01:30:32;;;;;;;1.52;0.90;;;18.70;74.50;;;;;;5070807;28;20051;-70
2021/07/10 01:33:37;;;;;;;2.88;0.63;;;18.70;73.80;;;;;;5071158;28;20390;-69
2021/07/10 01:36:42;;;;;;;0.82;0.50;;;18.70;73.90;;;;;;5071082;28;20035;-69
2021/07/10 01:39:46;;;;;;;1.63;0.55;;;18.70;73.90;;;;;;5071162;28;20035;-69
2021/07/10 01:42:51;;;;;;;2.25;0.68;;;18.70;74.10;;;;;;5069958;28;20039;-69
2021/07/10 01:45:55;;;;;;;1.33;0.77;;;18.70;74.30;;;;;;5071181;28;20047;-69
2021/07/10 01:48:59;;;;;;;1.92;1.10;;;18.60;74.20;;;;;;5070785;28;20430;-69
2021/07/10 01:52:04;;;;;;;3.13;0.60;;;18.50;74.80;;;;;;5070284;28;20052;-69
2021/07/10 01:55:09;;;;;;;1.75;0.90;;;18.60;74.70;;;;;;5070633;28;20048;-69
2021/07/10 01:58:14;;;;;;;5.72;1.23;;;18.60;74.80;;;;;;5070745;28;20035;-69
2021/07/10 02:01:18;;;;;;;2.13;0.80;;;18.50;75.10;;;;;;5070301;28;20039;-69
2021/07/10 02:04:22;;;;;;;1.20;0.80;;;18.50;75.00;;;;;;5069343;28;20410;-69
2021/07/10 02:07:26;;;;;;;1.65;0.70;;;18.50;75.20;;;;;;5049964;28;20044;-70
2021/07/10 02:10:32;;;;;;;2.33;0.80;;;18.40;75.60;;;;;;5049710;28;20048;-69
2021/07/10 02:13:36;;;;;;;1.92;0.90;;;18.40;75.90;;;;;;5050300;28;20392;-69
2021/07/10 02:16:42;;;;;;;1.88;0.90;;;18.30;76.00;;;;;;5050275;28;20052;-69
2021/07/10 02:19:46;;;;;;;6.07;0.90;;;18.20;76.10;;;;;;5050235;28;20069;-70
2021/07/10 02:22:50;;;;;;;4.93;1.08;;;18.20;76.40;;;;;;5050371;28;20048;-69
2021/07/10 02:25:54;;;;;;;2.38;0.77;;;18.10;77.10;;;;;;5050291;28;20056;-69
2021/07/10 02:28:58;;;;;;;2.10;1.13;;;18.10;76.90;;;;;;5050482;28;20044;-69
2021/07/10 02:32:02;;;;;;;1.80;1.05;;;18.00;77.50;;;;;;5049281;28;20495;-68
2021/07/10 02:35:11;;;;;;;2.53;0.70;;;17.60;78.50;;;;;;5049415;28;20494;-69
2021/07/10 02:38:15;;;;;;;6.07;1.15;;;17.50;79.00;;;;;;5050265;28;20048;-68
2021/07/10 02:41:20;;;;;;;2.22;0.80;;;17.30;79.40;;;;;;5049115;28;20119;-69
2021/07/10 02:44:24;;;;;;;2.13;0.95;;;17.30;79.90;;;;;;5049992;28;20056;-69
2021/07/10 02:47:28;;;;;;;1.75;0.80;;;17.20;80.20;;;;;;5049149;28;20064;-68
2021/07/10 02:50:32;;;;;;;4.32;1.15;;;17.10;81.30;;;;;;5048495;28;20494;-69
2021/07/10 02:53:36;;;;;;;2.53;1.13;;;17.00;82.80;;;;;;5049501;28;20055;-70
2021/07/10 02:56:40;;;;;;;4.03;1.20;;;17.00;83.40;;;;;;5070639;28;20059;-69
2021/07/10 02:59:45;;;;;;;2.15;1.00;;;17.00;84.20;;;;;;5069543;28;20040;-69
2021/07/10 03:02:49;;;;;;;2.78;1.38;;;16.90;84.40;;;;;;5069700;28;20044;-68
2021/07/10 03:05:53;;;;;;;3.17;1.10;;;16.90;85.00;;;;;;5068926;28;20509;-69
2021/07/10 03:08:58;;;;;;;3.13;1.15;;;16.90;85.70;;;;;;5069876;28;20051;-68
2021/07/10 03:12:03;;;;;;;4.60;1.20;;;16.80;86.40;;;;;;5069352;28;20047;-69
2021/07/10 03:15:09;;;;;;;2.47;1.23;;;16.80;87.30;;;;;;5069837;28;20091;-68
2021/07/10 03:18:13;;;;;;;2.67;1.38;;;16.70;88.20;;;;;;5068034;28;20390;-68
2021/07/10 03:21:17;;;;;;;3.55;1.23;;;16.60;90.10;;;;;;5071455;28;20040;-68
2021/07/10 03:24:21;;;;;;;2.85;1.27;;;16.40;90.70;;;;;;5069482;28;20036;-69
2021/07/10 03:27:25;;;;;;;3.45;1.40;;;16.30;91.50;;;;;;5068883;28;20040;-68
2021/07/10 03:30:29;;;;;;;4.63;1.35;;;16.20;91.90;;;;;;5068942;28;20047;-68
2021/07/10 03:33:36;;;;;;;4.65;1.40;;;16.20;92.00;;;;;;5069637;28;20055;-69
2021/07/10 03:36:40;;;;;;;2.50;1.40;;;16.20;91.90;;;;;;5069460;28;20047;-69
2021/07/10 03:39:44;;;;;;;3.35;1.45;;;16.10;91.80;;;;;;5069379;28;20048;-69
2021/07/10 03:42:48;;;;;;;2.30;1.10;;;16.10;91.60;;;;;;5069424;28;20334;-68
2021/07/10 03:45:53;;;;;;;4.93;1.27;;;16.00;91.60;;;;;;5073016;28;20052;-68
2021/07/10 03:48:57;;;;;;;8.88;1.67;;;16.00;91.70;;;;;;5073070;28;20043;-69
2021/07/10 03:52:01;;;;;;;2.58;1.60;;;16.00;91.60;;;;;;5073061;28;20051;-68
2021/07/10 03:55:07;;;;;;;5.68;1.40;;;16.00;91.80;;;;;;5072944;28;20048;-68
2021/07/10 03:58:11;;;;;;;3.53;1.48;;;16.00;91.80;;;;;;5053332;28;20040;-69
2021/07/10 04:01:15;;;;;;;6.60;1.10;;;16.00;92.10;;;;;;5052550;28;20407;-69
2021/07/10 04:04:19;;;;;;;4.40;1.33;;;16.00;92.10;;;;;;5075947;28;20043;-69
2021/07/10 04:07:23;;;;;;;2.47;1.20;;;16.00;92.10;;;;;;5073149;28;20044;-69
2021/07/10 04:10:28;;;;;;;4.70;1.33;;;16.00;92.40;;;;;;5072515;28;20047;-68
2021/07/10 04:13:32;;;;;;;6.05;1.52;;;16.10;92.60;;;;;;5072876;28;20051;-69
2021/07/10 04:16:36;;;;;;;2.00;1.20;;;16.10;92.60;;;;;;5072682;28;20040;-69
2021/07/10 04:19:41;;;;;;;8.18;1.40;;;16.20;92.30;;;;;;5072811;28;20043;-69
2021/07/10 04:22:46;;;;;;;6.72;1.73;;;16.30;92.30;;;;;;5071592;28;20498;-69
2021/07/10 04:25:50;;;;;;;4.75;2.17;;;16.40;92.30;;;;;;5071605;28;20043;-69
2021/07/10 04:28:54;;;;;;;3.83;1.40;;;16.50;92.30;;;;;;5065545;28;20043;-69
2021/07/10 04:31:59;;;;;;;2.70;1.15;;;16.60;92.10;;;;;;5050828;28;20032;-69
2021/07/10 04:35:05;;;;;;;7.00;1.65;;;16.70;92.10;;;;;;5063219;28;20394;-69
2021/07/10 04:38:09;;;;;;;4.22;1.10;;;17.80;91.90;;;;;;5072202;28;20122;-69
2021/07/10 04:41:13;;;;;;;10.30;2.65;;;20.20;89.30;;;;;;5071690;28;20047;-69
2021/07/10 04:44:17;;;;;;;5.50;1.30;;;21.80;84.30;;;;;;5071396;28;20119;-69
2021/07/10 04:47:21;;;;;;;3.33;1.50;;;23.30;81.20;;;;;;5078274;28;20051;-69
2021/07/10 04:50:25;;;;;;;6.90;1.70;;;23.90;79.20;;;;;;5071331;28;20063;-69
2021/07/10 04:53:30;;;;;;;6.38;1.23;;;24.70;77.80;;;;;;5071573;28;20044;-69
2021/07/10 04:56:35;;;;;;;4.13;1.63;;;25.10;76.00;;;;;;5051249;28;20040;-69
2021/07/10 04:59:38;;;;;;;6.40;1.20;;;26.00;74.90;;;;;;5074979;28;20036;-68
2021/07/10 05:02:43;;;;;;;3.00;1.27;;;26.50;73.90;;;;;;5070979;28;20051;-68
2021/07/10 05:05:47;;;;;;;5.68;1.77;;;26.00;74.50;;;;;;5071188;28;20047;-69
2021/07/10 05:08:51;;;;;;;3.00;1.30;;;26.00;74.70;;;;;;5071371;28;20047;-69
2021/07/10 05:11:56;;;;;;;2.33;1.13;;;26.10;74.70;;;;;;5070695;28;20065;-69
2021/07/10 05:15:02;;;;;;;8.45;1.55;;;26.80;73.30;;;;;;5070864;28;20052;-69
2021/07/10 05:18:07;;;;;;;3.70;1.30;;;27.20;72.30;;;;;;5071113;28;20486;-69
2021/07/10 05:21:12;;;;;;;5.75;1.30;;;28.30;71.30;;;;;;5070387;28;20398;-69
2021/07/10 05:24:16;;;;;;;3.90;1.40;;;27.70;70.70;;;;;;5070969;28;20044;-69
2021/07/10 05:27:20;;;;;;;6.32;1.20;;;26.80;72.70;;;;;;5070856;28;20399;-68
2021/07/10 05:30:24;;;;;;;2.35;1.30;;;26.90;72.70;;;;;;5070309;28;20043;-68
2021/07/10 05:33:29;;;;;;;4.18;1.27;;;26.00;73.50;;;;;;5070534;28;20035;-68
2021/07/10 05:36:32;;;;;;;5.00;1.25;;;26.80;73.00;;;;;;5070948;28;20043;-69
2021/07/10 05:39:38;;;;;;;1.58;1.00;;;27.50;72.20;;;;;;5070727;28;20039;-69
2021/07/10 05:42:43;;;;;;;3.75;1.10;;;28.10;71.30;;;;;;5070756;28;20040;-69
2021/07/10 05:45:47;;;;;;;6.03;1.67;;;28.90;70.20;;;;;;5067567;28;20072;-69
2021/07/10 05:48:51;;;;;;;8.90;1.20;;;29.10;69.70;;;;;;5068717;28;20509;-68
2021/07/10 05:51:55;;;;;;;4.13;0.90;;;29.60;69.10;;;;;;5068338;28;20035;-69
2021/07/10 05:54:59;;;;;;;4.53;1.38;;;29.40;68.60;;;;;;5064259;28;20510;-68
2021/07/10 05:58:03;;;;;;;2.05;1.00;;;30.10;67.40;;;;;;5069408;28;20442;-68
2021/07/10 06:01:09;;;;;;;3.08;1.23;;;30.20;66.90;;;;;;5068891;28;20391;-68
2021/07/10 06:04:15;;;;;;;7.15;1.10;;;30.40;66.50;;;;;;5068983;28;20403;-68
2021/07/10 06:07:20;;;;;;;1.73;0.90;;;30.30;66.80;;;;;;5068323;28;20059;-69
2021/07/10 06:10:26;;;;;;;3.17;1.23;;;30.40;66.80;;;;;;5069013;28;20036;-69
2021/07/10 06:13:30;;;;;;;14.00;1.23;;;30.50;66.70;;;;;;5068139;28;20418;-69
2021/07/10 06:16:38;;;;;;;5.40;0.90;;;30.80;65.60;;;;;;5069296;28;20497;-69
2021/07/10 06:19:43;;;;;;;3.53;1.10;;;31.20;65.50;;;;;;5067349;28;20047;-69
2021/07/10 06:22:49;;;;;;;4.88;1.10;;;31.50;66.30;;;;;;5067313;28;20043;-68
2021/07/10 06:25:53;;;;;;;4.85;1.40;;;31.60;66.80;;;;;;5071572;28;20402;-69
2021/07/10 06:29:00;;;;;;;2.90;1.08;;;31.70;66.90;;;;;;5069884;28;20147;-69
2021/07/10 06:32:07;;;;;;;7.20;1.25;;;31.60;66.80;;;;;;5070075;28;20039;-68
2021/07/10 06:35:11;;;;;;;3.40;1.13;;;31.50;66.20;;;;;;5068351;28;20046;-68
2021/07/10 06:38:16;;;;;;;6.63;1.60;;;31.50;66.10;;;;;;5070636;28;20036;-68
2021/07/10 06:41:20;;;;;;;3.50;0.88;;;31.60;66.00;;;;;;5063950;28;20056;-68
2021/07/10 06:44:24;;;;;;;6.70;1.40;;;31.60;65.70;;;;;;5070456;28;20808;-68
2021/07/10 06:47:28;;;;;;;11.68;1.60;;;31.90;65.70;;;;;;5068293;28;20426;-69
2021/07/10 06:50:33;;;;;;;5.80;1.65;;;32.30;65.50;;;;;;5069596;28;20048;-68
2021/07/10 06:53:38;;;;;;;4.68;1.38;;;32.70;65.50;;;;;;5069456;28;20533;-69
2021/07/10 06:56:45;;;;;;;6.57;1.35;;;32.70;65.90;;;;;;5069109;28;20422;-69
2021/07/10 06:59:49;;;;;;;4.75;1.40;;;33.10;66.30;;;;;;5069605;28;20394;-68
2021/07/10 07:02:53;;;;;;;5.55;1.30;;;33.30;65.80;;;;;;5064859;28;20040;-68
2021/07/10 07:05:58;;;;;;;3.58;1.23;;;33.40;66.20;;;;;;5067184;28;20044;-69
2021/07/10 07:09:02;;;;;;;6.63;1.48;;;33.40;66.20;;;;;;5066940;28;20040;-69
2021/07/10 07:12:07;;;;;;;7.25;1.50;;;33.90;65.80;;;;;;5068858;28;20427;-69
2021/07/10 07:15:11;;;;;;;8.75;1.33;;;34.30;65.70;;;;;;5068637;28;20035;-68
2021/07/10 07:18:15;;;;;;;8.25;1.65;;;34.80;65.00;;;;;;5071189;28;20039;-69
2021/07/10 07:21:20;;;;;;;9.18;1.40;;;34.70;64.60;;;;;;5070722;28;20059;-69
2021/07/10 07:24:24;;;;;;;4.40;1.45;;;34.80;64.80;;;;;;5073342;28;20048;-69
2021/07/10 07:27:27;;;;;;;4.75;1.38;;;34.90;64.90;;;;;;5073359;28;20043;-69
2021/07/10 07:30:33;;;;;;;7.13;1.42;;;35.30;64.80;;;;;;5072742;28;20043;-68
2021/07/10 07:33:37;;;;;;;5.20;1.30;;;35.20;63.00;;;;;;5072988;28;20055;-68
2021/07/10 07:36:41;;;;;;;7.70;1.55;;;35.50;62.50;;;;;;5068208;28;20039;-68
2021/07/10 07:39:46;;;;;;;5.05;1.50;;;35.70;62.30;;;;;;5073025;28;20039;-69
2021/07/10 07:42:51;;;;;;;5.43;1.13;;;35.90;61.70;;;;;;5053081;28;20043;-68
2021/07/10 07:45:55;;;;;;;4.15;1.38;;;36.30;60.10;;;;;;5064937;28;20047;-69
2021/07/10 07:49:00;;;;;;;6.80;1.00;;;36.50;60.70;;;;;;5072585;28;20055;-69
2021/07/10 07:52:06;;;;;;;4.45;1.60;;;36.70;58.80;;;;;;5072334;28;20043;-69
2021/07/10 07:55:12;;;;;;;5.07;1.58;;;37.40;59.00;;;;;;5072662;28;20047;-69
2021/07/10 07:58:17;;;;;;;6.18;1.80;;;38.30;58.50;;;;;;5068971;28;20048;-68
2021/07/10 08:01:21;;;;;;;2.30;0.88;;;39.00;58.40;;;;;;5071816;28;20052;-69
2021/07/10 08:04:25;;;;;;;5.70;1.17;;;38.50;57.50;;;;;;5053173;28;20055;-68
2021/07/10 08:07:29;;;;;;;10.27;1.20;;;37.70;59.10;;;;;;5056937;28;20490;-69
2021/07/10 08:10:34;;;;;;;6.22;1.20;;;38.10;59.20;;;;;;5071670;28;20040;-68
2021/07/10 08:13:39;;;;;;;5.05;1.27;;;38.00;58.90;;;;;;5072090;28;20510;-67
2021/07/10 08:16:42;;;;;;;4.82;1.00;;;39.00;58.40;;;;;;5072160;28;20043;-69
2021/07/10 08:19:47;;;;;;;3.55;1.25;;;38.80;58.70;;;;;;5072210;28;20052;-69
2021/07/10 08:22:52;;;;;;;8.90;1.20;;;39.40;57.60;;;;;;5073207;28;20475;-68
2021/07/10 08:25:57;;;;;;;6.95;1.00;;;39.90;57.20;;;;;;5071689;28;20044;-68
2021/07/10 08:29:01;;;;;;;5.05;1.13;;;40.10;57.30;;;;;;5072748;28;20047;-69
2021/07/10 08:32:06;;;;;;;4.13;1.10;;;40.40;56.40;;;;;;5072342;28;20044;-69
2021/07/10 08:35:12;;;;;;;4.60;0.93;;;41.10;56.30;;;;;;5072940;28;20040;-68
2021/07/10 08:38:16;;;;;;;6.65;1.20;;;41.10;55.70;;;;;;5070578;28;20417;-69
2021/07/10 08:41:24;;;;;;;4.13;0.90;;;40.40;56.00;;;;;;5067812;28;20047;-68
2021/07/10 08:44:29;;;;;;;3.03;0.82;;;40.70;55.20;;;;;;5067866;28;20047;-69
2021/07/10 08:47:36;;;;;;;5.18;1.13;;;40.50;56.00;;;;;;5059531;28;20059;-69
2021/07/10 08:50:40;;;;;;;4.55;0.80;;;40.90;55.90;;;;;;5070783;28;20055;-69
2021/07/10 08:53:47;;;;;;;2.65;1.00;;;41.80;54.50;;;;;;5071948;28;20039;-69
2021/07/10 08:56:51;;;;;;;2.60;1.00;;;41.60;54.00;;;;;;5071842;28;20040;-68
2021/07/10 08:59:56;;;;;;;16.25;2.40;;;42.10;54.20;;;;;;5071701;28;20043;-68
2021/07/10 09:03:00;;;;;;;4.30;0.90;;;41.60;54.70;;;;;;5071416;28;20059;-69
2021/07/10 09:06:06;;;;;;;10.25;1.60;;;42.10;55.00;;;;;;5059266;28;20051;-69
2021/07/10 09:09:10;;;;;;;8.82;1.40;;;42.30;54.50;;;;;;5071374;28;20039;-69
2021/07/10 09:12:30;;;;;;;7.32;1.20;;;43.50;53.50;;;;;;5070995;28;20055;-69
2021/07/10 09:15:35;;;;;;;2.67;1.13;;;43.60;53.70;;;;;;5071458;28;20035;-68
2021/07/10 09:19:21;;;;;;;4.00;1.30;;;44.10;53.20;;;;;;5071403;28;20035;-68
2021/07/10 09:22:28;;;;;;;2.28;0.77;;;44.50;53.10;;;;;;5008984;28;20040;-70
2021/07/10 09:25:33;;;;;;;3.20;1.02;;;45.30;52.30;;;;;;5009127;28;20122;-70
2021/07/10 09:28:37;;;;;;;3.80;1.45;;;46.70;51.70;;;;;;5071110;28;20528;-69
2021/07/10 09:31:53;;;;;;;9.02;1.05;;;47.40;51.60;;;;;;5070530;28;20043;-66
2021/07/10 09:34:58;;;;;;;2.40;1.00;;;47.70;51.10;;;;;;5071167;28;20521;-66
2021/07/10 09:38:17;;;;;;;4.38;1.20;;;47.10;50.80;;;;;;5070713;28;20043;-69
2021/07/10 09:41:30;;;;;;;2.80;0.97;;;47.50;50.40;;;;;;5069452;28;20041;-70
2021/07/10 09:44:43;;;;;;;4.25;1.05;;;46.60;50.80;;;;;;5070679;28;20266;-68
2021/07/10 09:47:49;;;;;;;3.70;0.95;;;44.80;51.60;;;;;;5069559;28;20048;-67
2021/07/10 09:51:20;;;;;;;3.22;1.63;;;46.20;51.50;;;;;;5070217;28;20048;-68
2021/07/10 09:54:30;;;;;;;6.15;1.20;;;46.70;51.20;;;;;;5070653;28;20398;-67
2021/07/10 09:57:36;;;;;;;1.98;0.88;;;47.50;50.70;;;;;;5070569;28;20035;-67
2021/07/10 10:00:41;;;;;;;5.50;1.17;;;47.90;49.70;;;;;;5070181;28;20047;-69
2021/07/10 10:03:45;;;;;;;5.13;1.00;;;47.50;50.00;;;;;;5070424;28;20403;-70
2021/07/10 10:06:48;;;;;;;4.35;1.40;;;48.00;50.00;;;;;;5070640;28;20051;-68
2021/07/10 10:09:56;;;;;;;2.10;0.95;;;47.80;49.80;;;;;;5070492;28;20043;-69
2021/07/10 10:13:09;;;;;;;5.53;1.10;;;48.60;49.10;;;;;;5070249;28;20048;-69
2021/07/10 10:16:15;;;;;;;3.03;1.10;;;45.10;49.10;;;;;;5070335;28;20383;-69
2021/07/10 10:19:22;;;;;;;2.55;0.82;;;47.20;49.60;;;;;;5070395;28;20047;-69
2021/07/10 10:22:27;;;;;;;4.78;0.70;;;48.40;47.80;;;;;;5070063;28;20043;-69
2021/07/10 10:25:32;;;;;;;2.90;0.80;;;47.60;47.20;;;;;;5070085;28;20060;-68
2021/07/10 10:28:37;;;;;;;1.75;0.50;;;48.00;47.10;;;;;;5069977;28;20047;-70
2021/07/10 10:31:43;;;;;;;3.60;0.55;;;48.50;46.10;;;;;;5069789;28;20067;-68
2021/07/10 10:34:50;;;;;;;7.55;1.50;;;48.20;46.90;;;;;;5070116;28;20032;-69
2021/07/10 10:37:56;;;;;;;2.28;0.80;;;47.60;46.20;;;;;;5070017;28;20039;-69
2021/07/10 10:41:01;;;;;;;2.00;0.70;;;47.00;48.20;;;;;;5069794;28;20059;-69
2021/07/10 10:44:06;;;;;;;4.65;0.52;;;47.70;46.30;;;;;;5069958;28;20048;-68
2021/07/10 10:47:13;;;;;;;3.67;0.70;;;47.60;46.20;;;;;;5069986;28;20059;-70
2021/07/10 10:50:24;;;;;;;2.53;0.90;;;47.90;46.20;;;;;;5069770;28;20044;-70
2021/07/10 10:53:28;;;;;;;3.33;0.60;;;48.30;47.20;;;;;;5072120;28;20040;-70
2021/07/10 10:56:39;;;;;;;2.83;0.80;;;48.80;46.10;;;;;;5074036;28;20044;-70
2021/07/10 10:59:44;;;;;;;12.82;1.02;;;48.50;46.70;;;;;;5074015;28;20039;-68
2021/07/10 11:03:05;;;;;;;6.03;0.80;;;47.90;44.60;;;;;;5073827;28;20039;-68
2021/07/10 11:06:31;;;;;;;1.98;0.75;;;47.30;44.80;;;;;;5073944;28;20044;-69
2021/07/10 11:10:04;;;;;;;3.10;0.90;;;46.80;46.60;;;;;;5073368;28;20043;-68
2021/07/10 11:13:28;;;;;;;2.13;0.65;;;46.70;46.90;;;;;;5073951;28;20336;-69
2021/07/10 11:16:33;;;;;;;3.00;0.75;;;47.30;46.30;;;;;;5073839;28;20039;-69
2021/07/10 11:19:45;;;;;;;2.75;0.63;;;46.50;46.30;;;;;;5073510;28;20063;-67
2021/07/10 11:22:56;;;;;;;7.07;1.40;;;45.30;46.70;;;;;;5073229;28;20052;-69
2021/07/10 11:26:07;;;;;;;2.63;0.73;;;44.70;47.30;;;;;;5073502;28;20391;-68
2021/07/10 11:29:20;;;;;;;1.65;0.50;;;44.40;46.30;;;;;;5073494;28;20040;-67
2021/07/10 11:32:27;;;;;;;1.45;0.70;;;44.40;46.90;;;;;;5073050;28;20041;-69
2021/07/10 11:35:35;;;;;;;4.57;0.80;;;42.00;46.70;;;;;;5073221;28;20040;-68
2021/07/10 11:38:40;;;;;;;4.22;0.93;;;41.80;49.50;;;;;;5073234;28;20048;-68
2021/07/10 11:41:45;;;;;;;2.13;1.00;;;42.40;49.10;;;;;;5072861;28;20039;-67
2021/07/10 11:44:51;;;;;;;3.75;0.95;;;42.70;49.30;;;;;;5073482;28;20043;-67
2021/07/10 11:48:00;;;;;;;3.90;0.70;;;42.90;48.80;;;;;;5073234;28;20398;-69
2021/07/10 11:51:08;;;;;;;3.15;1.00;;;42.80;48.40;;;;;;5072958;28;20061;-68
2021/07/10 11:54:18;;;;;;;1.52;0.68;;;43.20;48.20;;;;;;5073147;28;20043;-70
2021/07/10 11:57:25;;;;;;;3.63;0.90;;;42.90;49.50;;;;;;5073543;28;20039;-69
2021/07/10 12:00:29;;;;;;;3.05;0.77;;;43.10;49.30;;;;;;5073175;28;20043;-69
2021/07/10 12:03:34;;;;;;;1.42;0.70;;;43.00;49.40;;;;;;5073280;28;20043;-68
2021/07/10 12:06:39;;;;;;;4.35;1.05;;;43.50;49.00;;;;;;5072255;28;20047;-70
2021/07/10 12:09:51;;;;;;;3.92;1.08;;;43.00;48.80;;;;;;5072051;28;20399;-70
2021/07/10 12:13:00;;;;;;;4.05;1.00;;;43.30;48.60;;;;;;5073517;28;20048;-68
2021/07/10 12:16:06;;;;;;;1.88;1.08;;;43.10;49.50;;;;;;5073343;28;20506;-67
2021/07/10 12:19:15;;;;;;;3.13;0.80;;;39.50;51.50;;;;;;5070244;28;20039;-67
2021/07/10 12:22:21;;;;;;;2.88;0.75;;;39.30;52.10;;;;;;5059970;28;20042;-66
2021/07/10 12:25:33;;;;;;;3.95;0.70;;;39.80;51.80;;;;;;5071564;28;20070;-68
2021/07/10 12:28:41;;;;;;;2.60;1.00;;;40.20;50.30;;;;;;5070620;28;20044;-69
2021/07/10 12:31:45;;;;;;;7.53;1.27;;;40.00;51.10;;;;;;5071541;28;20338;-68
2021/07/10 12:34:52;;;;;;;2.00;1.00;;;40.00;50.50;;;;;;5071881;28;20375;-69
2021/07/10 12:38:10;;;;;;;9.32;1.23;;;40.40;51.10;;;;;;5072058;28;20051;-68
2021/07/10 12:41:38;;;;;;;1.55;0.80;;;39.80;51.00;;;;;;5071958;28;20489;-68
2021/07/10 12:44:43;;;;;;;4.03;1.17;;;39.50;52.50;;;;;;5072604;28;20528;-69
2021/07/10 12:47:58;;;;;;;3.30;0.98;;;40.00;51.40;;;;;;5071989;28;20493;-69
2021/07/10 12:51:02;;;;;;;2.45;0.90;;;40.00;50.40;;;;;;5070917;28;20395;-68
2021/07/10 12:54:26;;;;;;;4.57;1.52;;;39.90;50.90;;;;;;5064977;28;20048;-67
2021/07/10 12:57:43;;;;;;;2.58;1.10;;;39.80;50.60;;;;;;5051577;28;20247;-68
2021/07/10 13:00:49;;;;;;;6.22;1.27;;;39.50;50.60;;;;;;5056798;28;20040;-66
2021/07/10 13:03:56;;;;;;;4.07;1.05;;;39.50;51.10;;;;;;5071426;28;20044;-67
2021/07/10 13:07:00;;;;;;;3.45;0.80;;;39.40;50.40;;;;;;5071439;28;20044;-67
2021/07/10 13:10:06;;;;;;;3.33;0.95;;;39.10;51.00;;;;;;5071233;28;20055;-67
2021/07/10 13:13:14;;;;;;;5.38;1.02;;;39.10;51.20;;;;;;5071243;28;20051;-68
2021/07/10 13:16:19;;;;;;;12.27;1.20;;;39.00;51.10;;;;;;5071265;28;20509;-66
2021/07/10 13:19:32;;;;;;;3.72;1.23;;;39.10;51.90;;;;;;5070288;28;20245;-68
2021/07/10 13:22:46;;;;;;;6.55;0.80;;;39.10;51.30;;;;;;5071008;28;20047;-68
2021/07/10 13:25:50;;;;;;;3.33;1.02;;;39.10;51.30;;;;;;5071262;28;20039;-68
2021/07/10 13:29:16;;;;;;;2.20;0.80;;;38.70;50.60;;;;;;5070971;28;20051;-68
2021/07/10 13:32:21;;;;;;;1.50;0.80;;;38.80;51.00;;;;;;5070449;28;20052;-68
2021/07/10 13:35:26;;;;;;;2.20;0.80;;;38.70;50.70;;;;;;5071272;28;20371;-70
2021/07/10 13:38:37;;;;;;;5.65;1.50;;;38.80;50.20;;;;;;5070581;28;20036;-66
2021/07/10 13:42:03;;;;;;;4.10;0.98;;;38.30;51.00;;;;;;5070413;28;20044;-68
2021/07/10 13:45:08;;;;;;;2.63;0.82;;;36.00;53.50;;;;;;5070206;28;20387;-68
2021/07/10 13:48:14;;;;;;;3.28;0.90;;;36.70;52.90;;;;;;5071203;28;20055;-68
2021/07/10 13:51:24;;;;;;;2.05;0.80;;;37.20;52.60;;;;;;5070445;28;20378;-69
2021/07/10 13:54:42;;;;;;;2.08;0.80;;;37.50;51.50;;;;;;5070282;28;20514;-67
2021/07/10 13:57:50;;;;;;;4.50;1.05;;;36.80;51.10;;;;;;5051521;28;20048;-69
2021/07/10 14:00:57;;;;;;;2.15;0.73;;;35.70;52.60;;;;;;5050005;28;20044;-69
2021/07/10 14:04:12;;;;;;;3.78;1.00;;;36.20;52.70;;;;;;5069169;28;20039;-68
2021/07/10 14:07:16;;;;;;;2.72;1.10;;;36.90;53.00;;;;;;5061024;28;20051;-67
2021/07/10 14:10:32;;;;;;;2.28;0.98;;;37.00;52.70;;;;;;5064686;28;20051;-68
2021/07/10 14:13:38;;;;;;;6.93;1.00;;;37.30;52.90;;;;;;5070299;28;20044;-68
2021/07/10 14:16:42;;;;;;;2.67;1.13;;;37.30;52.50;;;;;;5070282;28;20059;-67
2021/07/10 14:19:47;;;;;;;3.13;0.88;;;37.00;51.90;;;;;;5069960;28;20386;-67
2021/07/10 14:22:52;;;;;;;2.38;0.95;;;35.20;52.80;;;;;;5069394;28;20051;-68
2021/07/10 14:25:58;;;;;;;2.50;0.88;;;33.90;54.20;;;;;;5070531;28;20377;-66
2021/07/10 14:29:03;;;;;;;3.83;0.90;;;34.00;55.00;;;;;;5069564;28;20047;-68
2021/07/10 14:32:08;;;;;;;4.68;0.90;;;34.70;55.20;;;;;;5069735;28;20047;-66
2021/07/10 14:35:14;;;;;;;2.00;0.70;;;35.20;54.40;;;;;;5069241;28;20039;-67
2021/07/10 14:38:19;;;;;;;2.78;0.90;;;35.50;54.00;;;;;;5070204;28;20036;-67
2021/07/10 14:41:22;;;;;;;3.08;0.90;;;35.70;53.40;;;;;;5069205;28;20387;-66
2021/07/10 14:44:26;;;;;;;5.20;1.17;;;35.60;54.30;;;;;;5070078;28;20051;-68
2021/07/10 14:47:30;;;;;;;2.28;1.10;;;35.70;52.90;;;;;;5068139;28;20052;-67
2021/07/10 14:50:35;;;;;;;5.32;1.00;;;35.70;53.60;;;;;;5068312;28;20048;-68
2021/07/10 14:53:39;;;;;;;4.32;0.90;;;35.70;53.50;;;;;;5068828;28;20051;-68
2021/07/10 14:56:45;;;;;;;2.58;0.80;;;35.70;54.30;;;;;;5069645;28;20048;-69
2021/07/10 14:59:51;;;;;;;5.78;0.93;;;35.90;53.40;;;;;;5049377;28;20043;-66
2021/07/10 15:02:57;;;;;;;5.10;1.30;;;35.70;54.60;;;;;;5060640;28;20052;-67
2021/07/10 15:06:01;;;;;;;3.33;1.08;;;35.60;54.00;;;;;;5069446;28;20500;-68
2021/07/10 15:09:05;;;;;;;1.63;0.75;;;34.40;54.70;;;;;;5067575;28;20043;-68
2021/07/10 15:12:10;;;;;;;1.27;0.80;;;34.00;54.90;;;;;;5067028;28;20055;-67
2021/07/10 15:15:16;;;;;;;1.92;0.82;;;34.20;54.40;;;;;;5069545;28;20043;-67
2021/07/10 15:18:20;;;;;;;1.95;1.05;;;33.40;55.60;;;;;;5069208;28;20043;-67
2021/07/10 15:21:24;;;;;;;4.60;1.00;;;33.70;55.40;;;;;;5069249;28;20056;-67
2021/07/10 15:24:28;;;;;;;5.35;1.30;;;33.60;55.00;;;;;;5049290;28;20052;-68
2021/07/10 15:27:32;;;;;;;3.17;0.98;;;33.90;55.50;;;;;;5049333;28;20060;-66
2021/07/10 15:30:38;;;;;;;3.50;1.33;;;34.20;55.30;;;;;;5036601;28;20047;-67
2021/07/10 15:33:42;;;;;;;6.38;1.30;;;34.10;54.40;;;;;;5049414;28;20052;-66
2021/07/10 15:36:47;;;;;;;5.63;1.00;;;33.40;56.00;;;;;;5037276;28;20040;-67
2021/07/10 15:39:52;;;;;;;3.13;0.90;;;33.50;55.20;;;;;;5050683;28;20047;-68
2021/07/10 15:42:56;;;;;;;3.78;0.75;;;33.50;55.90;;;;;;5070663;28;20057;-67
2021/07/10 15:46:00;;;;;;;6.40;1.20;;;33.60;55.50;;;;;;5073783;28;20367;-67
2021/07/10 15:49:04;;;;;;;4.60;0.90;;;33.30;56.10;;;;;;5073524;28;20044;-68
2021/07/10 15:52:10;;;;;;;5.38;0.90;;;33.40;56.10;;;;;;5073189;28;20052;-66
2021/07/10 15:55:19;;;;;;;8.07;1.45;;;32.60;55.80;;;;;;5068517;28;20040;-66
2021/07/10 15:58:23;;;;;;;2.08;1.13;;;32.40;55.90;;;;;;5071560;28;20068;-67
2021/07/10 16:01:28;;;;;;;6.53;1.20;;;32.70;56.20;;;;;;5063389;28;20490;-68
2021/07/10 16:04:32;;;;;;;7.05;1.27;;;32.90;56.30;;;;;;5050332;28;20407;-68
2021/07/10 16:07:37;;;;;;;16.52;4.60;;;33.00;58.10;;;;;;5071004;28;20040;-66